sensor_id;sensor_type;location;lat;lon;timestamp;temperature;humidity
15450;DHT22;7826;49.784;9.934;2022-07-29T00:01:01;20.70;53.60
15450;DHT22;7826;49.784;9.934;2022-07-29T00:03:27;20.70;53.60
15450;DHT22;7826;49.784;9.934;2022-07-29T00:05:54;20.70;53.70
15450;DHT22;7826;49.784;9.934;2022-07-29T00:08:20;20.70;53.50
15450;DHT22;7826;49.784;9.934;2022-07-29T00:10:47;20.70;53.50
15450;DHT22;7826;49.784;9.934;2022-07-29T00:13:13;20.60;53.30
15450;DHT22;7826;49.784;9.934;2022-07-29T00:15:39;20.60;53.20
15450;DHT22;7826;49.784;9.934;2022-07-29T00:18:06;20.60;53.30
15450;DHT22;7826;49.784;9.934;2022-07-29T00:20:32;20.60;53.10
15450;DHT22;7826;49.784;9.934;2022-07-29T00:22:58;20.50;53.20
15450;DHT22;7826;49.784;9.934;2022-07-29T00:25:25;20.50;53.00
15450;DHT22;7826;49.784;9.934;2022-07-29T00:27:51;20.50;53.00
15450;DHT22;7826;49.784;9.934;2022-07-29T00:30:17;20.50;53.00
15450;DHT22;7826;49.784;9.934;2022-07-29T00:32:44;20.50;53.10
15450;DHT22;7826;49.784;9.934;2022-07-29T00:35:10;20.50;53.10
15450;DHT22;7826;49.784;9.934;2022-07-29T00:37:55;20.50;53.20
15450;DHT22;7826;49.784;9.934;2022-07-29T00:40:22;20.50;52.90
15450;DHT22;7826;49.784;9.934;2022-07-29T00:42:49;20.50;53.00
15450;DHT22;7826;49.784;9.934;2022-07-29T00:45:17;20.40;52.90
15450;DHT22;7826;49.784;9.934;2022-07-29T00:47:43;20.40;53.10
15450;DHT22;7826;49.784;9.934;2022-07-29T00:50:11;20.40;53.10
15450;DHT22;7826;49.784;9.934;2022-07-29T00:52:39;20.40;53.20
15450;DHT22;7826;49.784;9.934;2022-07-29T00:55:08;20.30;53.20
15450;DHT22;7826;49.784;9.934;2022-07-29T00:57:35;20.30;53.30
15450;DHT22;7826;49.784;9.934;2022-07-29T01:00:04;20.20;53.50
15450;DHT22;7826;49.784;9.934;2022-07-29T01:02:31;20.20;53.70
15450;DHT22;7826;49.784;9.934;2022-07-29T01:04:57;20.20;53.60
15450;DHT22;7826;49.784;9.934;2022-07-29T01:07:25;20.20;53.50
15450;DHT22;7826;49.784;9.934;2022-07-29T01:09:53;20.10;53.50
15450;DHT22;7826;49.784;9.934;2022-07-29T01:12:25;20.10;53.60
15450;DHT22;7826;49.784;9.934;2022-07-29T01:14:53;20.10;53.70
15450;DHT22;7826;49.784;9.934;2022-07-29T01:17:26;20.10;53.80
15450;DHT22;7826;49.784;9.934;2022-07-29T01:30:49;19.90;54.60
15450;DHT22;7826;49.784;9.934;2022-07-29T01:33:17;19.80;54.60
15450;DHT22;7826;49.784;9.934;2022-07-29T01:36:12;19.80;54.70
15450;DHT22;7826;49.784;9.934;2022-07-29T01:38:41;19.80;54.90
15450;DHT22;7826;49.784;9.934;2022-07-29T01:41:15;19.80;54.60
15450;DHT22;7826;49.784;9.934;2022-07-29T01:43:56;19.80;54.70
15450;DHT22;7826;49.784;9.934;2022-07-29T01:46:35;19.80;54.70
15450;DHT22;7826;49.784;9.934;2022-07-29T01:49:14;19.70;54.80
15450;DHT22;7826;49.784;9.934;2022-07-29T01:51:49;19.60;54.90
15450;DHT22;7826;49.784;9.934;2022-07-29T01:56:51;19.60;55.30
15450;DHT22;7826;49.784;9.934;2022-07-29T01:59:20;19.50;55.40
15450;DHT22;7826;49.784;9.934;2022-07-29T02:01:48;19.50;55.50
15450;DHT22;7826;49.784;9.934;2022-07-29T02:04:18;19.40;55.50
15450;DHT22;7826;49.784;9.934;2022-07-29T02:06:47;19.40;55.60
15450;DHT22;7826;49.784;9.934;2022-07-29T02:09:16;19.30;55.50
15450;DHT22;7826;49.784;9.934;2022-07-29T02:11:49;19.30;55.60
15450;DHT22;7826;49.784;9.934;2022-07-29T02:14:19;19.30;55.80
15450;DHT22;7826;49.784;9.934;2022-07-29T02:16:48;19.20;55.80
15450;DHT22;7826;49.784;9.934;2022-07-29T02:19:17;19.20;56.00
15450;DHT22;7826;49.784;9.934;2022-07-29T02:21:45;19.20;56.20
15450;DHT22;7826;49.784;9.934;2022-07-29T02:24:13;19.20;56.40
15450;DHT22;7826;49.784;9.934;2022-07-29T02:26:41;19.20;56.30
15450;DHT22;7826;49.784;9.934;2022-07-29T02:29:09;19.20;56.40
15450;DHT22;7826;49.784;9.934;2022-07-29T02:31:38;19.20;56.40
15450;DHT22;7826;49.784;9.934;2022-07-29T02:34:07;19.20;56.30
15450;DHT22;7826;49.784;9.934;2022-07-29T02:36:35;19.20;56.30
15450;DHT22;7826;49.784;9.934;2022-07-29T02:39:03;19.10;56.20
15450;DHT22;7826;49.784;9.934;2022-07-29T02:41:35;19.10;56.20
15450;DHT22;7826;49.784;9.934;2022-07-29T02:44:14;19.10;56.30
15450;DHT22;7826;49.784;9.934;2022-07-29T02:46:53;19.10;56.30
15450;DHT22;7826;49.784;9.934;2022-07-29T02:49:35;19.10;56.40
15450;DHT22;7826;49.784;9.934;2022-07-29T02:52:06;19.10;56.50
15450;DHT22;7826;49.784;9.934;2022-07-29T03:00:27;19.00;56.60
15450;DHT22;7826;49.784;9.934;2022-07-29T03:02:56;19.00;56.70
15450;DHT22;7826;49.784;9.934;2022-07-29T03:05:24;19.00;56.70
15450;DHT22;7826;49.784;9.934;2022-07-29T03:07:55;19.00;56.70
15450;DHT22;7826;49.784;9.934;2022-07-29T03:10:25;19.00;56.70
15450;DHT22;7826;49.784;9.934;2022-07-29T03:12:52;19.00;56.70
15450;DHT22;7826;49.784;9.934;2022-07-29T03:15:20;19.00;56.80
15450;DHT22;7826;49.784;9.934;2022-07-29T03:17:48;19.00;56.60
15450;DHT22;7826;49.784;9.934;2022-07-29T03:20:15;19.00;56.60
15450;DHT22;7826;49.784;9.934;2022-07-29T03:22:42;19.00;56.60
15450;DHT22;7826;49.784;9.934;2022-07-29T03:25:10;19.00;56.80
15450;DHT22;7826;49.784;9.934;2022-07-29T03:27:37;18.90;56.70
15450;DHT22;7826;49.784;9.934;2022-07-29T03:30:04;18.90;56.80
15450;DHT22;7826;49.784;9.934;2022-07-29T03:32:31;18.90;56.80
15450;DHT22;7826;49.784;9.934;2022-07-29T03:34:58;18.90;56.70
15450;DHT22;7826;49.784;9.934;2022-07-29T03:37:25;18.80;56.90
15450;DHT22;7826;49.784;9.934;2022-07-29T03:39:52;18.80;56.90
15450;DHT22;7826;49.784;9.934;2022-07-29T03:42:23;18.80;57.70
15450;DHT22;7826;49.784;9.934;2022-07-29T03:44:51;18.80;58.20
15450;DHT22;7826;49.784;9.934;2022-07-29T03:47:21;18.80;58.80
15450;DHT22;7826;49.784;9.934;2022-07-29T03:49:50;18.70;59.10
15450;DHT22;7826;49.784;9.934;2022-07-29T03:52:17;18.70;59.40
15450;DHT22;7826;49.784;9.934;2022-07-29T03:54:44;18.70;59.30
15450;DHT22;7826;49.784;9.934;2022-07-29T03:57:11;18.70;59.60
15450;DHT22;7826;49.784;9.934;2022-07-29T03:59:38;18.80;59.90
15450;DHT22;7826;49.784;9.934;2022-07-29T04:02:09;18.80;59.70
15450;DHT22;7826;49.784;9.934;2022-07-29T04:04:38;18.80;60.00
15450;DHT22;7826;49.784;9.934;2022-07-29T04:07:04;18.80;60.40
15450;DHT22;7826;49.784;9.934;2022-07-29T04:09:31;18.80;60.70
15450;DHT22;7826;49.784;9.934;2022-07-29T04:11:57;18.80;60.40
15450;DHT22;7826;49.784;9.934;2022-07-29T04:14:23;18.80;60.40
15450;DHT22;7826;49.784;9.934;2022-07-29T04:16:50;18.80;60.60
15450;DHT22;7826;49.784;9.934;2022-07-29T04:19:16;18.80;60.70
15450;DHT22;7826;49.784;9.934;2022-07-29T04:21:42;18.80;60.70
15450;DHT22;7826;49.784;9.934;2022-07-29T04:24:11;18.80;60.40
15450;DHT22;7826;49.784;9.934;2022-07-29T04:26:37;18.80;60.40
15450;DHT22;7826;49.784;9.934;2022-07-29T04:29:03;18.80;59.90
15450;DHT22;7826;49.784;9.934;2022-07-29T04:31:29;18.80;60.70
15450;DHT22;7826;49.784;9.934;2022-07-29T04:33:56;18.80;59.00
15450;DHT22;7826;49.784;9.934;2022-07-29T04:36:22;18.70;58.30
15450;DHT22;7826;49.784;9.934;2022-07-29T04:38:48;18.80;58.60
15450;DHT22;7826;49.784;9.934;2022-07-29T04:41:14;18.80;58.30
15450;DHT22;7826;49.784;9.934;2022-07-29T04:43:41;18.80;58.10
15450;DHT22;7826;49.784;9.934;2022-07-29T04:46:07;18.90;58.30
15450;DHT22;7826;49.784;9.934;2022-07-29T04:48:33;18.90;58.20
15450;DHT22;7826;49.784;9.934;2022-07-29T04:50:59;18.90;58.00
15450;DHT22;7826;49.784;9.934;2022-07-29T04:53:26;19.00;58.20
15450;DHT22;7826;49.784;9.934;2022-07-29T04:55:52;19.00;58.80
15450;DHT22;7826;49.784;9.934;2022-07-29T04:58:18;19.20;58.00
15450;DHT22;7826;49.784;9.934;2022-07-29T05:00:45;19.40;58.10
15450;DHT22;7826;49.784;9.934;2022-07-29T05:03:11;19.60;59.00
15450;DHT22;7826;49.784;9.934;2022-07-29T05:05:37;19.60;59.10
15450;DHT22;7826;49.784;9.934;2022-07-29T05:08:04;19.80;60.30
15450;DHT22;7826;49.784;9.934;2022-07-29T05:10:30;19.90;59.20
15450;DHT22;7826;49.784;9.934;2022-07-29T05:12:56;20.10;59.50
15450;DHT22;7826;49.784;9.934;2022-07-29T05:15:23;20.40;59.00
15450;DHT22;7826;49.784;9.934;2022-07-29T05:17:49;20.80;58.10
15450;DHT22;7826;49.784;9.934;2022-07-29T05:20:15;21.20;58.00
15450;DHT22;7826;49.784;9.934;2022-07-29T05:22:41;21.50;56.90
15450;DHT22;7826;49.784;9.934;2022-07-29T05:25:08;21.60;54.50
15450;DHT22;7826;49.784;9.934;2022-07-29T05:27:36;21.90;53.30
15450;DHT22;7826;49.784;9.934;2022-07-29T05:30:03;21.90;51.70
15450;DHT22;7826;49.784;9.934;2022-07-29T05:32:29;21.90;51.50
15450;DHT22;7826;49.784;9.934;2022-07-29T05:34:56;21.90;51.30
15450;DHT22;7826;49.784;9.934;2022-07-29T05:37:22;22.10;51.40
15450;DHT22;7826;49.784;9.934;2022-07-29T05:39:48;22.10;51.50
15450;DHT22;7826;49.784;9.934;2022-07-29T05:42:15;22.40;50.80
15450;DHT22;7826;49.784;9.934;2022-07-29T05:44:41;22.60;50.90
15450;DHT22;7826;49.784;9.934;2022-07-29T05:47:07;22.70;49.90
15450;DHT22;7826;49.784;9.934;2022-07-29T05:49:34;22.60;49.40
15450;DHT22;7826;49.784;9.934;2022-07-29T05:52:00;22.50;50.30
15450;DHT22;7826;49.784;9.934;2022-07-29T05:54:27;22.60;50.50
15450;DHT22;7826;49.784;9.934;2022-07-29T05:56:53;22.70;50.50
15450;DHT22;7826;49.784;9.934;2022-07-29T05:59:20;23.00;49.80
15450;DHT22;7826;49.784;9.934;2022-07-29T06:01:46;22.90;50.10
15450;DHT22;7826;49.784;9.934;2022-07-29T06:04:12;23.10;49.80
15450;DHT22;7826;49.784;9.934;2022-07-29T06:06:38;23.30;49.30
15450;DHT22;7826;49.784;9.934;2022-07-29T06:09:05;23.40;48.30
15450;DHT22;7826;49.784;9.934;2022-07-29T06:11:31;23.30;49.30
15450;DHT22;7826;49.784;9.934;2022-07-29T06:13:57;23.50;49.00
15450;DHT22;7826;49.784;9.934;2022-07-29T06:16:23;23.80;49.30
15450;DHT22;7826;49.784;9.934;2022-07-29T06:18:50;24.00;48.00
15450;DHT22;7826;49.784;9.934;2022-07-29T06:21:16;23.90;48.00
15450;DHT22;7826;49.784;9.934;2022-07-29T06:23:42;23.50;48.20
15450;DHT22;7826;49.784;9.934;2022-07-29T06:26:10;23.30;49.00
15450;DHT22;7826;49.784;9.934;2022-07-29T06:28:36;23.10;49.50
15450;DHT22;7826;49.784;9.934;2022-07-29T06:31:03;23.10;50.40
15450;DHT22;7826;49.784;9.934;2022-07-29T06:33:29;23.40;50.30
15450;DHT22;7826;49.784;9.934;2022-07-29T06:35:56;23.70;49.50
15450;DHT22;7826;49.784;9.934;2022-07-29T06:38:23;23.90;48.90
15450;DHT22;7826;49.784;9.934;2022-07-29T06:40:49;24.10;48.60
15450;DHT22;7826;49.784;9.934;2022-07-29T06:43:33;24.40;48.00
15450;DHT22;7826;49.784;9.934;2022-07-29T06:46:03;24.70;48.10
15450;DHT22;7826;49.784;9.934;2022-07-29T06:48:30;25.00;48.10
15450;DHT22;7826;49.784;9.934;2022-07-29T06:50:56;25.40;47.30
15450;DHT22;7826;49.784;9.934;2022-07-29T06:53:23;25.70;46.30
15450;DHT22;7826;49.784;9.934;2022-07-29T06:55:49;25.70;46.00
15450;DHT22;7826;49.784;9.934;2022-07-29T06:58:16;26.20;46.50
15450;DHT22;7826;49.784;9.934;2022-07-29T07:00:44;26.60;46.20
15450;DHT22;7826;49.784;9.934;2022-07-29T07:03:11;27.00;46.40
15450;DHT22;7826;49.784;9.934;2022-07-29T07:05:37;27.40;45.20
15450;DHT22;7826;49.784;9.934;2022-07-29T07:08:04;27.60;43.80
15450;DHT22;7826;49.784;9.934;2022-07-29T07:10:30;27.90;43.50
15450;DHT22;7826;49.784;9.934;2022-07-29T07:12:57;28.40;43.00
15450;DHT22;7826;49.784;9.934;2022-07-29T07:15:23;28.70;42.70
15450;DHT22;7826;49.784;9.934;2022-07-29T07:17:50;29.00;42.60
15450;DHT22;7826;49.784;9.934;2022-07-29T07:20:17;29.30;41.70
15450;DHT22;7826;49.784;9.934;2022-07-29T07:22:43;29.60;41.50
15450;DHT22;7826;49.784;9.934;2022-07-29T07:25:10;29.90;40.50
15450;DHT22;7826;49.784;9.934;2022-07-29T07:27:37;30.20;40.50
15450;DHT22;7826;49.784;9.934;2022-07-29T07:30:07;30.50;39.80
15450;DHT22;7826;49.784;9.934;2022-07-29T07:32:33;30.40;39.70
15450;DHT22;7826;49.784;9.934;2022-07-29T07:35:00;30.00;40.10
15450;DHT22;7826;49.784;9.934;2022-07-29T07:37:26;29.90;40.30
15450;DHT22;7826;49.784;9.934;2022-07-29T07:39:53;29.60;40.30
15450;DHT22;7826;49.784;9.934;2022-07-29T07:42:19;29.60;40.90
15450;DHT22;7826;49.784;9.934;2022-07-29T07:44:46;30.40;40.50
15450;DHT22;7826;49.784;9.934;2022-07-29T07:47:15;30.90;39.60
15450;DHT22;7826;49.784;9.934;2022-07-29T07:49:49;31.40;39.50
15450;DHT22;7826;49.784;9.934;2022-07-29T07:52:16;32.10;37.20
15450;DHT22;7826;49.784;9.934;2022-07-29T07:54:43;32.20;36.60
15450;DHT22;7826;49.784;9.934;2022-07-29T07:57:16;31.50;37.10
15450;DHT22;7826;49.784;9.934;2022-07-29T07:59:42;30.70;38.20
15450;DHT22;7826;49.784;9.934;2022-07-29T08:02:09;30.10;39.30
15450;DHT22;7826;49.784;9.934;2022-07-29T08:04:36;29.60;40.80
15450;DHT22;7826;49.784;9.934;2022-07-29T08:07:02;29.30;42.30
15450;DHT22;7826;49.784;9.934;2022-07-29T08:09:29;30.50;42.30
15450;DHT22;7826;49.784;9.934;2022-07-29T08:11:57;31.60;39.30
15450;DHT22;7826;49.784;9.934;2022-07-29T08:14:24;31.40;38.50
15450;DHT22;7826;49.784;9.934;2022-07-29T08:16:51;30.80;38.30
15450;DHT22;7826;49.784;9.934;2022-07-29T08:19:17;30.30;40.20
15450;DHT22;7826;49.784;9.934;2022-07-29T08:21:44;30.40;41.40
15450;DHT22;7826;49.784;9.934;2022-07-29T08:24:10;31.00;39.80
15450;DHT22;7826;49.784;9.934;2022-07-29T08:26:55;30.50;39.10
15450;DHT22;7826;49.784;9.934;2022-07-29T08:29:21;30.10;40.60
15450;DHT22;7826;49.784;9.934;2022-07-29T08:31:47;30.20;40.70
15450;DHT22;7826;49.784;9.934;2022-07-29T08:34:14;30.40;41.70
15450;DHT22;7826;49.784;9.934;2022-07-29T08:36:40;30.80;40.90
15450;DHT22;7826;49.784;9.934;2022-07-29T08:39:07;30.50;39.60
15450;DHT22;7826;49.784;9.934;2022-07-29T08:41:33;30.40;41.30
15450;DHT22;7826;49.784;9.934;2022-07-29T08:44:02;30.70;41.10
15450;DHT22;7826;49.784;9.934;2022-07-29T08:46:28;30.40;40.70
15450;DHT22;7826;49.784;9.934;2022-07-29T08:48:55;30.00;41.40
15450;DHT22;7826;49.784;9.934;2022-07-29T08:51:22;29.70;42.50
15450;DHT22;7826;49.784;9.934;2022-07-29T08:53:50;29.70;42.20
15450;DHT22;7826;49.784;9.934;2022-07-29T08:56:18;29.70;42.50
15450;DHT22;7826;49.784;9.934;2022-07-29T08:58:48;29.60;42.30
15450;DHT22;7826;49.784;9.934;2022-07-29T09:01:17;29.50;42.20
15450;DHT22;7826;49.784;9.934;2022-07-29T09:03:47;29.10;42.30
15450;DHT22;7826;49.784;9.934;2022-07-29T09:06:16;28.80;43.50
15450;DHT22;7826;49.784;9.934;2022-07-29T09:08:44;28.30;44.10
15450;DHT22;7826;49.784;9.934;2022-07-29T09:11:12;28.00;45.20
15450;DHT22;7826;49.784;9.934;2022-07-29T09:13:39;27.80;45.40
15450;DHT22;7826;49.784;9.934;2022-07-29T09:16:06;27.60;46.10
15450;DHT22;7826;49.784;9.934;2022-07-29T09:18:44;27.50;46.50
15450;DHT22;7826;49.784;9.934;2022-07-29T09:21:12;27.90;46.70
15450;DHT22;7826;49.784;9.934;2022-07-29T09:24:17;28.30;46.20
15450;DHT22;7826;49.784;9.934;2022-07-29T09:26:45;28.40;44.90
15450;DHT22;7826;49.784;9.934;2022-07-29T09:29:16;28.30;45.30
15450;DHT22;7826;49.784;9.934;2022-07-29T09:31:44;28.40;45.10
15450;DHT22;7826;49.784;9.934;2022-07-29T09:34:13;28.40;44.70
15450;DHT22;7826;49.784;9.934;2022-07-29T09:36:41;28.40;45.40
15450;DHT22;7826;49.784;9.934;2022-07-29T09:39:08;28.30;45.50
15450;DHT22;7826;49.784;9.934;2022-07-29T09:44:15;27.90;49.10
15450;DHT22;7826;49.784;9.934;2022-07-29T09:47:02;27.80;50.80
15450;DHT22;7826;49.784;9.934;2022-07-29T09:52:17;27.70;52.20
15450;DHT22;7826;49.784;9.934;2022-07-29T09:54:43;27.60;53.20
15450;DHT22;7826;49.784;9.934;2022-07-29T09:57:28;27.50;54.70
15450;DHT22;7826;49.784;9.934;2022-07-29T10:00:09;27.30;54.70
15450;DHT22;7826;49.784;9.934;2022-07-29T10:02:37;27.10;53.80
15450;DHT22;7826;49.784;9.934;2022-07-29T10:05:19;27.00;53.10
15450;DHT22;7826;49.784;9.934;2022-07-29T10:07:54;27.20;52.00
15450;DHT22;7826;49.784;9.934;2022-07-29T10:12:59;27.40;51.30
15450;DHT22;7826;49.784;9.934;2022-07-29T10:15:29;27.60;52.10
15450;DHT22;7826;49.784;9.934;2022-07-29T10:17:57;27.60;49.30
15450;DHT22;7826;49.784;9.934;2022-07-29T10:20:25;27.50;49.00
15450;DHT22;7826;49.784;9.934;2022-07-29T10:22:52;27.40;49.50
15450;DHT22;7826;49.784;9.934;2022-07-29T10:25:20;27.30;51.10
15450;DHT22;7826;49.784;9.934;2022-07-29T10:27:47;27.10;51.90
15450;DHT22;7826;49.784;9.934;2022-07-29T10:30:15;27.00;53.00
15450;DHT22;7826;49.784;9.934;2022-07-29T10:38:17;26.60;52.70
15450;DHT22;7826;49.784;9.934;2022-07-29T10:44:29;26.60;53.30
15450;DHT22;7826;49.784;9.934;2022-07-29T10:46:50;26.60;53.20
15450;DHT22;7826;49.784;9.934;2022-07-29T10:49:24;26.60;53.10
15450;DHT22;7826;49.784;9.934;2022-07-29T10:52:09;26.60;52.20
15450;DHT22;7826;49.784;9.934;2022-07-29T10:59:49;26.70;52.80
15450;DHT22;7826;49.784;9.934;2022-07-29T11:07:24;26.90;51.70
15450;DHT22;7826;49.784;9.934;2022-07-29T11:15:06;27.00;49.70
15450;DHT22;7826;49.784;9.934;2022-07-29T11:25:44;27.50;49.00
15450;DHT22;7826;49.784;9.934;2022-07-29T11:28:16;27.40;48.00
15450;DHT22;7826;49.784;9.934;2022-07-29T11:30:52;27.30;48.30
15450;DHT22;7826;49.784;9.934;2022-07-29T11:33:32;27.50;48.10
15450;DHT22;7826;49.784;9.934;2022-07-29T11:36:25;27.60;48.30
15450;DHT22;7826;49.784;9.934;2022-07-29T11:38:51;27.70;48.00
15450;DHT22;7826;49.784;9.934;2022-07-29T11:41:38;27.70;47.60
15450;DHT22;7826;49.784;9.934;2022-07-29T11:44:05;27.90;47.50
15450;DHT22;7826;49.784;9.934;2022-07-29T11:46:48;27.70;47.30
15450;DHT22;7826;49.784;9.934;2022-07-29T11:49:21;27.70;48.20
15450;DHT22;7826;49.784;9.934;2022-07-29T11:51:55;27.70;47.60
15450;DHT22;7826;49.784;9.934;2022-07-29T11:54:26;27.60;47.50
15450;DHT22;7826;49.784;9.934;2022-07-29T11:56:57;27.50;47.70
15450;DHT22;7826;49.784;9.934;2022-07-29T11:59:24;27.40;48.20
15450;DHT22;7826;49.784;9.934;2022-07-29T12:01:55;27.50;48.20
15450;DHT22;7826;49.784;9.934;2022-07-29T12:04:21;27.60;47.70
15450;DHT22;7826;49.784;9.934;2022-07-29T12:06:50;27.60;47.90
15450;DHT22;7826;49.784;9.934;2022-07-29T12:09:18;27.90;47.50
15450;DHT22;7826;49.784;9.934;2022-07-29T12:11:46;27.90;47.30
15450;DHT22;7826;49.784;9.934;2022-07-29T12:14:29;27.80;47.20
15450;DHT22;7826;49.784;9.934;2022-07-29T12:16:57;27.70;47.90
15450;DHT22;7826;49.784;9.934;2022-07-29T12:19:23;27.90;47.00
15450;DHT22;7826;49.784;9.934;2022-07-29T12:21:55;27.80;46.80
15450;DHT22;7826;49.784;9.934;2022-07-29T12:24:24;27.80;48.00
15450;DHT22;7826;49.784;9.934;2022-07-29T12:29:18;28.20;47.20
15450;DHT22;7826;49.784;9.934;2022-07-29T12:31:45;28.40;47.00
15450;DHT22;7826;49.784;9.934;2022-07-29T12:34:14;28.60;47.00
15450;DHT22;7826;49.784;9.934;2022-07-29T12:36:42;28.60;46.30
15450;DHT22;7826;49.784;9.934;2022-07-29T12:39:09;28.50;46.40
15450;DHT22;7826;49.784;9.934;2022-07-29T12:41:37;28.50;46.50
15450;DHT22;7826;49.784;9.934;2022-07-29T12:44:03;28.40;46.50
15450;DHT22;7826;49.784;9.934;2022-07-29T12:46:30;28.30;46.80
15450;DHT22;7826;49.784;9.934;2022-07-29T12:48:56;28.30;47.10
15450;DHT22;7826;49.784;9.934;2022-07-29T12:51:35;28.30;47.20
15450;DHT22;7826;49.784;9.934;2022-07-29T12:54:11;28.20;46.90
15450;DHT22;7826;49.784;9.934;2022-07-29T12:56:41;28.10;46.90
15450;DHT22;7826;49.784;9.934;2022-07-29T12:59:21;28.00;47.40
15450;DHT22;7826;49.784;9.934;2022-07-29T13:01:49;27.90;47.30
15450;DHT22;7826;49.784;9.934;2022-07-29T13:04:25;27.70;47.50
15450;DHT22;7826;49.784;9.934;2022-07-29T13:07:03;27.60;48.10
15450;DHT22;7826;49.784;9.934;2022-07-29T13:09:39;27.50;48.00
15450;DHT22;7826;49.784;9.934;2022-07-29T13:12:07;27.40;48.60
15450;DHT22;7826;49.784;9.934;2022-07-29T13:14:39;27.20;49.00
15450;DHT22;7826;49.784;9.934;2022-07-29T13:17:10;27.10;49.40
15450;DHT22;7826;49.784;9.934;2022-07-29T13:22:15;27.10;50.40
15450;DHT22;7826;49.784;9.934;2022-07-29T13:27:20;26.90;52.70
15450;DHT22;7826;49.784;9.934;2022-07-29T13:29:46;26.80;53.20
15450;DHT22;7826;49.784;9.934;2022-07-29T13:32:13;26.70;54.80
15450;DHT22;7826;49.784;9.934;2022-07-29T13:34:40;26.60;56.40
15450;DHT22;7826;49.784;9.934;2022-07-29T13:37:07;26.50;57.20
15450;DHT22;7826;49.784;9.934;2022-07-29T13:39:33;26.30;57.20
15450;DHT22;7826;49.784;9.934;2022-07-29T13:42:00;26.20;57.60
15450;DHT22;7826;49.784;9.934;2022-07-29T13:44:26;26.00;57.80
15450;DHT22;7826;49.784;9.934;2022-07-29T13:46:53;25.90;57.90
15450;DHT22;7826;49.784;9.934;2022-07-29T13:49:19;25.90;58.60
15450;DHT22;7826;49.784;9.934;2022-07-29T13:51:46;25.80;59.00
15450;DHT22;7826;49.784;9.934;2022-07-29T13:54:13;25.80;59.40
15450;DHT22;7826;49.784;9.934;2022-07-29T13:56:39;25.70;59.60
15450;DHT22;7826;49.784;9.934;2022-07-29T13:59:05;25.70;59.80
15450;DHT22;7826;49.784;9.934;2022-07-29T14:01:31;25.60;58.90
15450;DHT22;7826;49.784;9.934;2022-07-29T14:03:58;25.60;58.60
15450;DHT22;7826;49.784;9.934;2022-07-29T14:06:24;25.50;61.30
15450;DHT22;7826;49.784;9.934;2022-07-29T14:08:50;25.30;66.60
15450;DHT22;7826;49.784;9.934;2022-07-29T14:11:16;25.00;70.10
15450;DHT22;7826;49.784;9.934;2022-07-29T14:13:42;24.60;73.10
15450;DHT22;7826;49.784;9.934;2022-07-29T14:16:09;24.30;75.40
15450;DHT22;7826;49.784;9.934;2022-07-29T14:18:35;24.00;77.20
15450;DHT22;7826;49.784;9.934;2022-07-29T14:21:02;23.90;79.10
15450;DHT22;7826;49.784;9.934;2022-07-29T14:23:28;23.80;79.70
15450;DHT22;7826;49.784;9.934;2022-07-29T14:25:55;23.80;81.50
15450;DHT22;7826;49.784;9.934;2022-07-29T14:28:21;23.80;81.70
15450;DHT22;7826;49.784;9.934;2022-07-29T14:30:47;23.80;81.00
15450;DHT22;7826;49.784;9.934;2022-07-29T14:33:13;23.70;81.20
15450;DHT22;7826;49.784;9.934;2022-07-29T14:35:40;23.60;82.70
15450;DHT22;7826;49.784;9.934;2022-07-29T14:38:06;23.60;83.10
15450;DHT22;7826;49.784;9.934;2022-07-29T14:40:32;23.60;83.60
15450;DHT22;7826;49.784;9.934;2022-07-29T14:42:58;23.50;83.50
15450;DHT22;7826;49.784;9.934;2022-07-29T14:45:25;23.40;84.70
15450;DHT22;7826;49.784;9.934;2022-07-29T14:47:51;23.30;85.40
15450;DHT22;7826;49.784;9.934;2022-07-29T14:50:17;23.30;85.20
15450;DHT22;7826;49.784;9.934;2022-07-29T14:52:44;23.30;86.10
15450;DHT22;7826;49.784;9.934;2022-07-29T14:55:10;23.40;87.10
15450;DHT22;7826;49.784;9.934;2022-07-29T14:57:37;23.50;88.70
15450;DHT22;7826;49.784;9.934;2022-07-29T15:00:04;23.50;90.00
15450;DHT22;7826;49.784;9.934;2022-07-29T15:02:33;23.40;90.50
15450;DHT22;7826;49.784;9.934;2022-07-29T15:04:59;23.30;91.10
15450;DHT22;7826;49.784;9.934;2022-07-29T15:07:27;23.10;92.00
15450;DHT22;7826;49.784;9.934;2022-07-29T15:09:53;22.90;91.90
15450;DHT22;7826;49.784;9.934;2022-07-29T15:12:20;22.70;92.50
15450;DHT22;7826;49.784;9.934;2022-07-29T15:14:46;22.60;93.20
15450;DHT22;7826;49.784;9.934;2022-07-29T15:17:12;22.60;93.20
15450;DHT22;7826;49.784;9.934;2022-07-29T15:19:38;22.60;92.20
15450;DHT22;7826;49.784;9.934;2022-07-29T15:22:05;22.50;90.50
15450;DHT22;7826;49.784;9.934;2022-07-29T15:24:31;22.50;87.50
15450;DHT22;7826;49.784;9.934;2022-07-29T15:26:58;22.40;86.40
15450;DHT22;7826;49.784;9.934;2022-07-29T15:29:24;22.40;86.80
15450;DHT22;7826;49.784;9.934;2022-07-29T15:31:50;22.30;88.90
15450;DHT22;7826;49.784;9.934;2022-07-29T15:34:16;22.10;90.90
15450;DHT22;7826;49.784;9.934;2022-07-29T15:36:43;21.80;91.90
15450;DHT22;7826;49.784;9.934;2022-07-29T15:39:09;21.60;93.50
15450;DHT22;7826;49.784;9.934;2022-07-29T15:41:36;21.30;96.40
15450;DHT22;7826;49.784;9.934;2022-07-29T15:44:02;21.10;97.30
15450;DHT22;7826;49.784;9.934;2022-07-29T15:46:28;21.00;98.50
15450;DHT22;7826;49.784;9.934;2022-07-29T15:49:14;20.90;99.50
15450;DHT22;7826;49.784;9.934;2022-07-29T15:51:40;20.90;99.90
15450;DHT22;7826;49.784;9.934;2022-07-29T15:54:06;20.90;99.90
15450;DHT22;7826;49.784;9.934;2022-07-29T15:56:33;20.90;1.00
15450;DHT22;7826;49.784;9.934;2022-07-29T15:59:00;20.90;1.00
15450;DHT22;7826;49.784;9.934;2022-07-29T16:01:26;20.90;1.00
15450;DHT22;7826;49.784;9.934;2022-07-29T16:03:53;20.90;99.90
15450;DHT22;7826;49.784;9.934;2022-07-29T16:06:19;20.90;99.90
15450;DHT22;7826;49.784;9.934;2022-07-29T16:08:45;20.80;99.90
15450;DHT22;7826;49.784;9.934;2022-07-29T16:11:11;20.80;99.90
15450;DHT22;7826;49.784;9.934;2022-07-29T16:13:38;20.70;99.90
15450;DHT22;7826;49.784;9.934;2022-07-29T16:16:04;20.70;99.90
15450;DHT22;7826;49.784;9.934;2022-07-29T16:18:30;20.70;99.90
15450;DHT22;7826;49.784;9.934;2022-07-29T16:20:57;20.60;99.90
15450;DHT22;7826;49.784;9.934;2022-07-29T16:23:23;20.70;99.90
15450;DHT22;7826;49.784;9.934;2022-07-29T16:25:49;20.80;99.90
15450;DHT22;7826;49.784;9.934;2022-07-29T16:28:16;20.80;99.90
15450;DHT22;7826;49.784;9.934;2022-07-29T16:30:42;20.90;99.90
15450;DHT22;7826;49.784;9.934;2022-07-29T16:33:08;21.00;99.90
15450;DHT22;7826;49.784;9.934;2022-07-29T16:35:34;20.90;99.90
15450;DHT22;7826;49.784;9.934;2022-07-29T16:38:04;20.90;99.90
15450;DHT22;7826;49.784;9.934;2022-07-29T16:40:30;20.80;99.90
15450;DHT22;7826;49.784;9.934;2022-07-29T16:42:56;20.70;99.90
15450;DHT22;7826;49.784;9.934;2022-07-29T16:45:22;20.70;99.90
15450;DHT22;7826;49.784;9.934;2022-07-29T16:47:49;20.70;99.90
15450;DHT22;7826;49.784;9.934;2022-07-29T16:50:15;20.70;99.90
15450;DHT22;7826;49.784;9.934;2022-07-29T16:52:41;20.70;99.90
15450;DHT22;7826;49.784;9.934;2022-07-29T16:55:07;20.80;99.90
15450;DHT22;7826;49.784;9.934;2022-07-29T16:57:34;20.80;99.90
15450;DHT22;7826;49.784;9.934;2022-07-29T17:00:01;20.90;99.90
15450;DHT22;7826;49.784;9.934;2022-07-29T17:02:27;20.90;99.90